createdAt,value
2023-01-26T00:02:23.378Z,0.50
2023-01-26T00:05:09.903Z,0.50
2023-01-26T00:07:56.458Z,0.50
2023-01-26T00:10:42.973Z,0.50
2023-01-26T00:13:29.622Z,0.60
2023-01-26T00:16:16.248Z,0.50
2023-01-26T00:19:02.809Z,0.50
2023-01-26T00:21:49.321Z,0.50
2023-01-26T00:24:35.880Z,0.50
2023-01-26T00:27:22.404Z,0.50
2023-01-26T00:30:10.276Z,0.50
2023-01-26T00:32:57.057Z,0.50
2023-01-26T00:35:43.570Z,0.50
2023-01-26T00:38:30.094Z,0.50
2023-01-26T00:41:16.701Z,0.50
2023-01-26T00:44:03.212Z,0.50
2023-01-26T00:46:49.785Z,0.40
2023-01-26T00:49:36.330Z,0.40
2023-01-26T00:52:22.850Z,0.40
2023-01-26T00:55:09.352Z,0.40
2023-01-26T00:57:55.894Z,0.40
2023-01-26T01:00:42.490Z,0.40
2023-01-26T01:03:29.267Z,0.40
2023-01-26T01:06:15.749Z,0.40
2023-01-26T01:09:02.328Z,0.40
2023-01-26T01:11:48.859Z,0.40
2023-01-26T01:14:35.343Z,0.40
2023-01-26T01:17:21.888Z,0.40
2023-01-26T01:20:08.594Z,0.40
2023-01-26T01:22:55.258Z,0.40
2023-01-26T01:25:41.784Z,0.50
2023-01-26T01:28:28.315Z,0.40
2023-01-26T01:31:14.942Z,0.40
2023-01-26T01:34:01.597Z,0.40
2023-01-26T01:36:48.165Z,0.40
2023-01-26T01:39:34.690Z,0.40
2023-01-26T01:42:21.252Z,0.40
2023-01-26T01:45:07.768Z,0.40
2023-01-26T01:47:54.293Z,0.40
2023-01-26T01:50:40.826Z,0.30
2023-01-26T01:53:27.401Z,0.30
2023-01-26T01:56:13.886Z,0.30
2023-01-26T01:59:00.418Z,0.40
2023-01-26T02:01:47.023Z,0.30
2023-01-26T02:04:33.568Z,0.30
2023-01-26T02:07:20.054Z,0.40
2023-01-26T02:10:06.576Z,0.40
2023-01-26T02:12:53.123Z,0.40
2023-01-26T02:15:39.659Z,0.40
2023-01-26T02:18:26.186Z,0.30
2023-01-26T02:21:12.811Z,0.40
2023-01-26T02:23:59.431Z,0.40
2023-01-26T02:26:45.971Z,0.30
2023-01-26T02:29:32.630Z,0.30
2023-01-26T02:32:19.142Z,0.30
2023-01-26T02:35:05.751Z,0.30
2023-01-26T02:37:52.329Z,0.30
2023-01-26T02:40:38.880Z,0.30
2023-01-26T02:43:25.399Z,0.30
2023-01-26T02:46:12.001Z,0.30
2023-01-26T02:48:58.517Z,0.30
2023-01-26T02:51:45.077Z,0.30
2023-01-26T02:54:32.591Z,0.30
2023-01-26T02:57:19.140Z,0.30
2023-01-26T03:00:05.663Z,0.20
2023-01-26T03:02:52.199Z,0.20
2023-01-26T03:05:38.848Z,0.20
2023-01-26T03:08:25.367Z,0.20
2023-01-26T03:11:11.939Z,0.20
2023-01-26T03:13:58.589Z,0.20
2023-01-26T03:16:45.087Z,0.20
2023-01-26T03:19:31.577Z,0.20
2023-01-26T03:22:18.128Z,0.20
2023-01-26T03:25:04.668Z,0.10
2023-01-26T03:27:51.328Z,0.20
2023-01-26T03:30:37.920Z,0.20
2023-01-26T03:33:24.477Z,0.10
2023-01-26T03:36:11.138Z,0.10
2023-01-26T03:38:57.665Z,0.10
2023-01-26T03:41:44.324Z,0.10
2023-01-26T03:44:30.849Z,0.10
2023-01-26T03:47:17.402Z,0.10
2023-01-26T03:50:03.895Z,0.10
2023-01-26T03:52:50.447Z,0.10
2023-01-26T03:55:37.007Z,0.00
2023-01-26T03:58:23.571Z,0.00
2023-01-26T04:01:10.085Z,0.00
2023-01-26T04:03:56.639Z,0.10
2023-01-26T04:06:43.316Z,0.00
2023-01-26T04:09:29.856Z,0.10
2023-01-26T04:12:16.337Z,0.10
2023-01-26T04:15:02.898Z,0.00
2023-01-26T04:17:49.431Z,0.00
2023-01-26T04:20:36.322Z,0.00
2023-01-26T04:23:22.906Z,0.00
2023-01-26T04:26:09.555Z,0.00
2023-01-26T04:28:56.078Z,0.00
2023-01-26T04:31:42.657Z,0.00
2023-01-26T04:34:29.193Z,0.00
2023-01-26T04:37:15.861Z,0.00
2023-01-26T04:40:02.339Z,0.00
2023-01-26T04:42:48.863Z,0.00
2023-01-26T04:45:35.401Z,0.10
2023-01-26T04:48:22.063Z,0.00
2023-01-26T04:51:08.605Z,0.00
2023-01-26T04:53:55.153Z,0.00
2023-01-26T04:56:41.731Z,0.00
2023-01-26T04:59:28.415Z,-0.10
2023-01-26T05:02:15.004Z,-0.20
2023-01-26T05:05:01.546Z,-0.20
2023-01-26T05:07:48.227Z,-0.20
2023-01-26T05:10:34.751Z,-0.30
2023-01-26T05:13:21.264Z,-0.40
2023-01-26T05:16:07.882Z,-0.30
2023-01-26T05:18:54.454Z,-0.40
2023-01-26T05:21:41.036Z,-0.40
2023-01-26T05:24:27.638Z,-0.40
2023-01-26T05:27:14.206Z,-0.30
2023-01-26T05:30:00.976Z,-0.30
2023-01-26T05:32:47.738Z,-0.30
2023-01-26T05:35:34.282Z,-0.30
2023-01-26T05:38:20.810Z,-0.30
2023-01-26T05:41:07.331Z,-0.30
2023-01-26T05:43:53.863Z,-0.40
2023-01-26T05:46:40.427Z,-0.50
2023-01-26T05:49:26.964Z,-0.60
2023-01-26T05:52:13.529Z,-0.60
2023-01-26T05:55:00.054Z,-0.60
2023-01-26T05:57:46.627Z,-0.60
2023-01-26T06:00:33.161Z,-0.50
2023-01-26T06:03:19.697Z,-0.50
2023-01-26T06:06:06.246Z,-0.60
2023-01-26T06:08:52.779Z,-0.60
2023-01-26T06:11:39.338Z,-0.60
2023-01-26T06:14:25.872Z,-0.70
2023-01-26T06:17:12.364Z,-0.60
2023-01-26T06:19:58.893Z,-0.60
2023-01-26T06:22:45.411Z,-0.60
2023-01-26T06:25:31.937Z,-0.70
2023-01-26T06:28:18.474Z,-0.60
2023-01-26T06:31:05.108Z,-0.60
2023-01-26T06:33:51.707Z,-0.60
2023-01-26T06:36:38.239Z,-0.60
2023-01-26T06:39:24.791Z,-0.60
2023-01-26T06:42:11.311Z,-0.60
2023-01-26T06:44:57.869Z,-0.50
2023-01-26T06:47:44.380Z,-0.50
2023-01-26T06:50:30.945Z,-0.40
2023-01-26T06:53:17.482Z,-0.40
2023-01-26T06:56:04.028Z,-0.40
2023-01-26T06:58:50.542Z,-0.40
2023-01-26T07:01:37.223Z,-0.40
2023-01-26T07:04:23.811Z,-0.60
2023-01-26T07:07:10.366Z,-0.70
2023-01-26T07:09:56.881Z,-0.80
2023-01-26T07:12:43.410Z,-0.80
2023-01-26T07:15:29.949Z,-0.70
2023-01-26T07:18:16.477Z,-0.60
2023-01-26T07:21:03.109Z,-0.60
2023-01-26T07:23:49.631Z,-0.60
2023-01-26T07:26:36.202Z,-0.60
2023-01-26T07:29:22.728Z,-0.60
2023-01-26T07:32:09.300Z,-0.70
2023-01-26T07:34:55.826Z,-0.70
2023-01-26T07:37:42.384Z,-0.70
2023-01-26T07:40:28.969Z,-0.70
2023-01-26T07:43:15.551Z,-0.70
2023-01-26T07:46:02.098Z,-0.80
2023-01-26T07:48:48.721Z,-0.70
2023-01-26T07:51:35.299Z,-0.60
2023-01-26T07:54:22.857Z,-0.50
2023-01-26T07:57:09.387Z,-0.40
2023-01-26T07:59:55.880Z,-0.40
2023-01-26T08:02:42.462Z,-0.40
2023-01-26T08:05:29.014Z,-0.40
2023-01-26T08:08:15.738Z,-0.40
2023-01-26T08:11:02.261Z,-0.40
2023-01-26T08:13:48.808Z,-0.30
2023-01-26T08:16:35.328Z,-0.30
2023-01-26T08:19:22.906Z,-0.20
2023-01-26T08:22:09.437Z,-0.20
2023-01-26T08:24:56.055Z,-0.10
2023-01-26T08:27:42.600Z,0.00
2023-01-26T08:30:29.122Z,0.00
2023-01-26T08:33:15.652Z,0.10
2023-01-26T08:36:02.198Z,0.10
2023-01-26T08:38:48.749Z,0.20
2023-01-26T08:41:35.319Z,0.30
2023-01-26T08:44:21.843Z,0.30
2023-01-26T08:47:08.371Z,0.40
2023-01-26T08:49:54.849Z,0.40
2023-01-26T08:52:41.413Z,0.40
2023-01-26T08:55:27.938Z,0.50
2023-01-26T08:58:14.466Z,0.50
2023-01-26T09:01:01.007Z,0.60
2023-01-26T09:03:47.541Z,0.50
2023-01-26T09:06:34.066Z,0.60
2023-01-26T09:09:20.611Z,0.60
2023-01-26T09:12:07.222Z,0.60
2023-01-26T09:14:53.767Z,0.60
2023-01-26T09:17:40.295Z,0.60
2023-01-26T09:20:26.853Z,0.60
2023-01-26T09:23:13.382Z,0.60
2023-01-26T09:25:59.924Z,0.60
2023-01-26T09:28:46.453Z,0.70
2023-01-26T09:31:34.099Z,0.70
2023-01-26T09:34:20.675Z,0.70
2023-01-26T09:37:07.220Z,0.70
2023-01-26T09:39:53.747Z,0.80
2023-01-26T09:42:40.254Z,0.80
2023-01-26T09:45:26.839Z,0.80
2023-01-26T09:48:13.756Z,0.80
2023-01-26T09:51:00.351Z,0.80
2023-01-26T09:53:46.902Z,0.90
2023-01-26T09:56:33.433Z,0.90
2023-01-26T09:59:19.979Z,0.90
2023-01-26T10:02:06.689Z,0.90
2023-01-26T10:04:53.226Z,0.90
2023-01-26T10:07:39.789Z,0.90
2023-01-26T10:10:27.327Z,1.00
2023-01-26T10:13:13.885Z,1.00
2023-01-26T10:16:00.449Z,1.00
2023-01-26T10:18:46.997Z,1.00
2023-01-26T10:21:33.529Z,1.00
2023-01-26T10:24:20.122Z,1.00
2023-01-26T10:27:06.650Z,1.00
2023-01-26T10:29:53.338Z,1.00
2023-01-26T10:32:40.046Z,1.00
2023-01-26T10:35:26.697Z,1.00
2023-01-26T10:38:13.210Z,1.00
2023-01-26T10:40:59.756Z,1.00
2023-01-26T10:43:46.283Z,1.00
2023-01-26T10:46:33.076Z,1.00
2023-01-26T10:49:19.608Z,1.00
2023-01-26T10:52:06.181Z,1.00
2023-01-26T10:54:52.719Z,1.00
2023-01-26T10:57:39.229Z,1.00
2023-01-26T11:00:25.746Z,1.00
2023-01-26T11:03:12.406Z,1.00
2023-01-26T11:05:59.019Z,1.10
2023-01-26T11:08:45.548Z,1.00
2023-01-26T11:11:32.053Z,1.10
2023-01-26T11:14:18.605Z,1.10
2023-01-26T11:17:05.161Z,1.10
2023-01-26T11:19:51.699Z,1.10
2023-01-26T11:22:38.222Z,1.10
2023-01-26T11:25:24.822Z,1.10
2023-01-26T11:28:11.374Z,1.00
2023-01-26T11:30:57.946Z,1.00
2023-01-26T11:33:44.475Z,1.00
2023-01-26T11:36:31.036Z,1.00
2023-01-26T11:39:17.587Z,1.00
2023-01-26T11:42:04.106Z,1.00
2023-01-26T11:44:50.654Z,1.00
2023-01-26T11:47:37.176Z,1.00
2023-01-26T11:50:23.739Z,1.00
2023-01-26T11:53:10.275Z,1.00
2023-01-26T11:55:57.783Z,1.00
2023-01-26T11:58:44.350Z,1.00
2023-01-26T12:01:30.839Z,1.00
2023-01-26T12:04:17.381Z,1.00
2023-01-26T12:07:03.896Z,1.00
2023-01-26T12:09:50.397Z,1.00
2023-01-26T12:12:38.269Z,1.00
2023-01-26T12:15:24.958Z,1.00
2023-01-26T12:18:11.445Z,1.00
2023-01-26T12:20:57.979Z,1.00
2023-01-26T12:23:44.693Z,1.00
2023-01-26T12:26:31.217Z,1.00
2023-01-26T12:29:17.762Z,1.00
2023-01-26T12:32:04.249Z,1.00
2023-01-26T12:34:50.810Z,0.90
2023-01-26T12:37:37.299Z,0.80
2023-01-26T12:40:23.785Z,0.80
2023-01-26T12:43:11.623Z,0.70
2023-01-26T12:46:00.511Z,0.80
2023-01-26T12:48:47.343Z,0.70
2023-01-26T12:51:33.916Z,0.80
2023-01-26T12:54:20.449Z,0.80
2023-01-26T12:57:07.176Z,0.80
2023-01-26T12:59:53.710Z,0.80
2023-01-26T13:02:40.260Z,0.80
2023-01-26T13:05:27.900Z,0.80
2023-01-26T13:08:14.465Z,0.80
2023-01-26T13:11:01.009Z,0.90
2023-01-26T13:13:47.558Z,0.90
2023-01-26T13:16:34.070Z,0.90
2023-01-26T13:19:20.608Z,0.90
2023-01-26T13:22:07.125Z,1.00
2023-01-26T13:24:53.691Z,1.00
2023-01-26T13:27:40.237Z,1.00
2023-01-26T13:30:26.849Z,1.00
2023-01-26T13:33:13.392Z,1.00
2023-01-26T13:35:59.917Z,1.00
2023-01-26T13:38:46.451Z,1.00
2023-01-26T13:41:33.008Z,1.00
2023-01-26T13:44:19.556Z,1.00
2023-01-26T13:47:06.111Z,1.00
2023-01-26T13:49:52.597Z,0.90
2023-01-26T13:52:39.122Z,1.00
2023-01-26T13:55:25.609Z,0.90
2023-01-26T13:58:12.174Z,0.90
2023-01-26T14:00:58.707Z,0.90
2023-01-26T14:03:45.207Z,0.90
2023-01-26T14:06:31.680Z,0.90
2023-01-26T14:09:18.230Z,0.90
2023-01-26T14:12:04.764Z,0.90
2023-01-26T14:14:51.296Z,0.90
2023-01-26T14:17:37.786Z,0.90
2023-01-26T14:20:24.267Z,0.90
2023-01-26T14:23:10.813Z,0.80
2023-01-26T14:25:57.399Z,0.80
2023-01-26T14:28:43.924Z,0.80
2023-01-26T14:31:30.500Z,0.80
2023-01-26T14:34:16.997Z,0.80
2023-01-26T14:37:03.531Z,0.80
2023-01-26T14:39:50.061Z,0.70
2023-01-26T14:42:36.581Z,0.70
2023-01-26T14:45:23.110Z,0.70
2023-01-26T14:48:09.656Z,0.60
2023-01-26T14:50:56.218Z,0.60
2023-01-26T14:53:42.737Z,0.60
2023-01-26T14:56:29.246Z,0.50
2023-01-26T14:59:15.787Z,0.50
2023-01-26T15:02:02.310Z,0.50
2023-01-26T15:04:48.869Z,0.50
2023-01-26T15:07:35.395Z,0.50
2023-01-26T15:10:21.954Z,0.40
2023-01-26T15:13:08.445Z,0.40
2023-01-26T15:15:54.993Z,0.40
2023-01-26T15:18:41.533Z,0.40
2023-01-26T15:21:28.093Z,0.40
2023-01-26T15:24:14.712Z,0.40
2023-01-26T15:27:01.340Z,0.30
2023-01-26T15:29:47.897Z,0.30
2023-01-26T15:32:34.450Z,0.30
2023-01-26T15:35:20.970Z,0.30
2023-01-26T15:38:07.502Z,0.30
2023-01-26T15:40:54.048Z,0.30
2023-01-26T15:43:40.681Z,0.30
2023-01-26T15:46:27.295Z,0.30
2023-01-26T15:49:13.814Z,0.30
2023-01-26T15:52:00.350Z,0.30
2023-01-26T15:54:46.926Z,0.30
2023-01-26T15:57:33.417Z,0.20
2023-01-26T16:00:19.967Z,0.20
2023-01-26T16:03:06.486Z,0.20
2023-01-26T16:05:53.033Z,0.20
2023-01-26T16:08:39.558Z,0.20
2023-01-26T16:11:27.611Z,0.10
2023-01-26T16:14:14.145Z,0.10
2023-01-26T16:17:00.680Z,0.10
2023-01-26T16:19:47.193Z,0.10
2023-01-26T16:22:33.756Z,0.00
2023-01-26T16:25:20.409Z,0.00
2023-01-26T16:28:06.919Z,-0.10
2023-01-26T16:30:53.483Z,-0.10
2023-01-26T16:33:40.041Z,-0.10
2023-01-26T16:36:26.522Z,-0.10
2023-01-26T16:39:13.107Z,0.00
2023-01-26T16:41:59.612Z,-0.10
2023-01-26T16:44:46.154Z,0.00
2023-01-26T16:47:32.701Z,0.00
2023-01-26T16:50:19.407Z,-0.10
2023-01-26T16:53:06.097Z,-0.10
2023-01-26T16:55:52.642Z,-0.10
2023-01-26T16:58:39.155Z,0.00
2023-01-26T17:01:25.859Z,-0.10
2023-01-26T17:04:12.367Z,-0.10
2023-01-26T17:06:58.934Z,-0.10
2023-01-26T17:09:45.455Z,-0.10
2023-01-26T17:12:32.010Z,-0.10
2023-01-26T17:15:18.529Z,-0.10
2023-01-26T17:18:05.086Z,-0.10
2023-01-26T17:20:51.614Z,-0.10
2023-01-26T17:23:38.263Z,-0.30
2023-01-26T17:26:24.793Z,-0.30
2023-01-26T17:29:11.408Z,-0.40
2023-01-26T17:31:57.947Z,-0.40
2023-01-26T17:34:44.514Z,-0.30
2023-01-26T17:37:30.996Z,-0.30
2023-01-26T17:40:17.525Z,-0.30
2023-01-26T17:43:04.076Z,-0.30
2023-01-26T17:45:50.613Z,-0.30
2023-01-26T17:48:37.194Z,-0.20
2023-01-26T17:51:23.712Z,-0.30
2023-01-26T17:54:10.386Z,-0.20
2023-01-26T17:56:56.912Z,-0.30
2023-01-26T17:59:43.444Z,-0.30
2023-01-26T18:02:30.021Z,-0.20
2023-01-26T18:05:16.597Z,-0.30
2023-01-26T18:08:03.141Z,-0.20
2023-01-26T18:10:49.672Z,-0.20
2023-01-26T18:13:36.228Z,-0.20
2023-01-26T18:16:22.894Z,-0.20
2023-01-26T18:19:09.721Z,-0.20
2023-01-26T18:21:56.267Z,-0.20
2023-01-26T18:24:42.810Z,-0.20
2023-01-26T18:27:29.336Z,-0.30
2023-01-26T18:30:15.848Z,-0.30
2023-01-26T18:33:02.362Z,-0.30
2023-01-26T18:35:48.916Z,-0.30
2023-01-26T18:38:35.433Z,-0.20
2023-01-26T18:41:22.160Z,-0.30
2023-01-26T18:44:08.998Z,-0.30
2023-01-26T18:46:55.558Z,-0.30
2023-01-26T18:49:42.076Z,-0.40
2023-01-26T18:52:30.894Z,-0.40
2023-01-26T18:55:17.569Z,-0.40
2023-01-26T18:58:04.088Z,-0.50
2023-01-26T19:00:50.609Z,-0.50
2023-01-26T19:03:37.164Z,-0.50
2023-01-26T19:06:23.695Z,-0.50
2023-01-26T19:09:10.178Z,-0.50
2023-01-26T19:11:56.738Z,-0.60
2023-01-26T19:14:43.259Z,-0.50
2023-01-26T19:17:29.789Z,-0.50
2023-01-26T19:20:16.301Z,-0.50
2023-01-26T19:23:02.830Z,-0.50
2023-01-26T19:25:49.367Z,-0.50
2023-01-26T19:28:35.902Z,-0.60
2023-01-26T19:31:22.500Z,-0.60
2023-01-26T19:34:09.058Z,-0.60
2023-01-26T19:36:55.604Z,-0.60
2023-01-26T19:39:42.163Z,-0.60
2023-01-26T19:42:28.681Z,-0.60
2023-01-26T19:45:15.199Z,-0.60
2023-01-26T19:48:01.721Z,-0.70
2023-01-26T19:50:48.277Z,-0.70
2023-01-26T19:53:34.763Z,-0.70
2023-01-26T19:56:21.265Z,-0.70
2023-01-26T19:59:07.812Z,-0.70
2023-01-26T20:01:54.367Z,-0.70
2023-01-26T20:04:40.895Z,-0.70
2023-01-26T20:07:27.402Z,-0.70
2023-01-26T20:10:14.027Z,-0.70
2023-01-26T20:13:00.581Z,-0.70
2023-01-26T20:15:47.099Z,-0.70
2023-01-26T20:18:33.638Z,-0.70
2023-01-26T20:21:20.164Z,-0.70
2023-01-26T20:24:07.084Z,-0.70
2023-01-26T20:26:53.663Z,-0.70
2023-01-26T20:29:40.201Z,-0.80
2023-01-26T20:32:26.733Z,-0.70
2023-01-26T20:35:13.254Z,-0.70
2023-01-26T20:37:59.815Z,-0.70
2023-01-26T20:40:46.302Z,-0.70
2023-01-26T20:43:32.856Z,-0.60
2023-01-26T20:46:19.364Z,-0.60
2023-01-26T20:49:05.898Z,-0.60
2023-01-26T20:51:52.419Z,-0.60
2023-01-26T20:54:38.934Z,-0.60
2023-01-26T20:57:25.460Z,-0.60
2023-01-26T21:00:12.290Z,-0.60
2023-01-26T21:02:58.994Z,-0.60
2023-01-26T21:05:45.547Z,-0.60
2023-01-26T21:08:32.106Z,-0.60
2023-01-26T21:11:18.630Z,-0.60
2023-01-26T21:14:05.126Z,-0.60
2023-01-26T21:16:51.645Z,-0.60
2023-01-26T21:19:38.182Z,-0.60
2023-01-26T21:22:24.704Z,-0.60
2023-01-26T21:25:11.252Z,-0.60
2023-01-26T21:27:57.782Z,-0.60
2023-01-26T21:30:44.308Z,-0.60
2023-01-26T21:33:30.833Z,-0.60
2023-01-26T21:36:17.557Z,-0.50
2023-01-26T21:39:04.069Z,-0.50
2023-01-26T21:41:50.634Z,-0.50
2023-01-26T21:44:37.158Z,-0.50
2023-01-26T21:47:23.706Z,-0.60
2023-01-26T21:50:10.457Z,-0.50
2023-01-26T21:52:57.206Z,-0.60
2023-01-26T21:55:44.745Z,-0.60
2023-01-26T21:58:32.290Z,-0.60
2023-01-26T22:01:18.909Z,-0.60
2023-01-26T22:04:05.482Z,-0.60
2023-01-26T22:06:52.053Z,-0.60
2023-01-26T22:09:38.628Z,-0.60
2023-01-26T22:12:25.173Z,-0.60
2023-01-26T22:15:11.670Z,-0.60
2023-01-26T22:17:58.193Z,-0.60
2023-01-26T22:20:44.747Z,-0.60
2023-01-26T22:23:31.309Z,-0.60
2023-01-26T22:26:17.775Z,-0.60
2023-01-26T22:29:04.361Z,-0.50
2023-01-26T22:31:50.888Z,-0.60
2023-01-26T22:34:37.453Z,-0.60
2023-01-26T22:37:24.002Z,-0.60
2023-01-26T22:40:10.787Z,-0.60
2023-01-26T22:42:57.587Z,-0.60
2023-01-26T22:45:44.167Z,-0.60
2023-01-26T22:48:30.729Z,-0.60
2023-01-26T22:51:18.240Z,-0.60
2023-01-26T22:54:04.877Z,-0.60
2023-01-26T22:56:51.395Z,-0.60
2023-01-26T22:59:37.934Z,-0.60
2023-01-26T23:02:24.499Z,-0.60
2023-01-26T23:05:11.034Z,-0.60
2023-01-26T23:07:57.592Z,-0.60
2023-01-26T23:10:44.125Z,-0.70
2023-01-26T23:13:30.704Z,-0.70
2023-01-26T23:16:17.243Z,-0.70
2023-01-26T23:19:03.827Z,-0.80
2023-01-26T23:21:50.344Z,-0.80
2023-01-26T23:24:36.883Z,-0.80
2023-01-26T23:27:23.405Z,-0.80
2023-01-26T23:30:10.156Z,-0.90
2023-01-26T23:32:56.891Z,-0.90
2023-01-26T23:35:43.455Z,-0.90
2023-01-26T23:38:29.938Z,-0.90
2023-01-26T23:41:16.487Z,-0.90
2023-01-26T23:44:02.974Z,-0.90
2023-01-26T23:46:49.620Z,-0.90
2023-01-26T23:49:36.176Z,-0.90
2023-01-26T23:52:22.738Z,-0.80
2023-01-26T23:55:09.254Z,-0.80
2023-01-26T23:57:55.781Z,-0.90
